DELFR EDDN-EDDN

Flight info

Callsign DELFR
Flight time N/A
Altitude 6000
Route DN107
Aircraft C172/L-SFG/C

Departure

Time 2026-05-01 12:29
Airport Nuremberg Airport (EDDN)

Arrival

Time N/A
Airport Nuremberg Airport (EDDN)
Time Latitude Longitude Altitude Speed Heading
2026-05-01 12:20 49.49517 11.07374 1016 ft 0 kts
2026-05-01 12:25 49.49520 11.07355 1021 ft 2 kts 227°
2026-05-01 12:25 49.49504 11.07344 1021 ft 2 kts 192°
2026-05-01 12:26 49.49492 11.07278 1021 ft 12 kts 277°
2026-05-01 12:26 49.49578 11.07209 1021 ft 8 kts
2026-05-01 12:26 49.49633 11.07222 1020 ft 8 kts
2026-05-01 12:27 49.49691 11.07233 1018 ft 9 kts
2026-05-01 12:27 49.49753 11.07099 1016 ft 8 kts 309°
2026-05-01 12:28 49.49842 11.07035 1016 ft 8 kts 338°
2026-05-01 12:28 49.49918 11.07021 1018 ft 12 kts 30°
2026-05-01 12:28 49.49893 11.07646 1021 ft 66 kts 103°
2026-05-01 12:29 49.49807 11.08421 1146 ft 74 kts 105°
2026-05-01 12:29 49.49754 11.09211 1427 ft 75 kts 97°
2026-05-01 12:29 49.50559 11.10083 1740 ft 116 kts 332°
2026-05-01 12:30 49.51096 11.07727 1877 ft 129 kts 272°
2026-05-01 12:30 49.51156 11.06377 1860 ft 122 kts 275°
2026-05-01 12:30 49.51263 11.05102 1862 ft 119 kts 276°
2026-05-01 12:31 49.51104 11.03993 1663 ft 106 kts 216°
2026-05-01 12:31 49.50496 11.03836 1450 ft 87 kts 150°
2026-05-01 12:31 49.50197 11.04518 1283 ft 77 kts 107°
2026-05-01 12:31 49.50128 11.05346 1149 ft 76 kts 107°
2026-05-01 12:32 49.50033 11.06129 1044 ft 73 kts 105°
2026-05-01 12:32 49.49884 11.07607 1033 ft 86 kts 98°
2026-05-01 12:32 49.49844 11.08412 1353 ft 73 kts 106°
2026-05-01 12:33 49.49745 11.09214 1610 ft 81 kts 102°
2026-05-01 12:33 49.49734 11.10171 1806 ft 99 kts 67°
2026-05-01 12:33 49.50373 11.10379 2034 ft 111 kts 337°
2026-05-01 12:33 49.50788 11.09416 2224 ft 111 kts 283°
2026-05-01 12:34 49.50950 11.08143 2224 ft 128 kts 278°
2026-05-01 12:34 49.51053 11.06751 2222 ft 132 kts 277°
2026-05-01 12:34 49.51118 11.05429 2176 ft 114 kts 261°
2026-05-01 12:34 49.50723 11.04621 2047 ft 88 kts 175°
2026-05-01 12:35 49.50176 11.05082 1366 ft 109 kts 108°
2026-05-01 12:35 49.50032 11.06205 1029 ft 100 kts 92°
2026-05-01 12:35 49.49929 11.07178 1019 ft 97 kts 101°
2026-05-01 12:35 49.49901 11.08130 1344 ft 82 kts 100°
2026-05-01 12:36 49.49844 11.09037 1606 ft 85 kts 97°
2026-05-01 12:36 49.49735 11.09926 1940 ft 87 kts 102°
2026-05-01 12:36 49.49691 11.10887 2180 ft 95 kts 93°
2026-05-01 12:36 49.49715 11.11931 2235 ft 102 kts 87°
2026-05-01 12:37 49.50046 11.12884 2345 ft 108 kts 44°
2026-05-01 12:37 49.50714 11.13471 2464 ft 115 kts 36°
2026-05-01 12:37 49.51381 11.14169 2582 ft 113 kts 42°
2026-05-01 12:37 49.52043 11.14895 2602 ft 120 kts 45°
2026-05-01 12:38 49.52712 11.15659 2648 ft 123 kts 43°
2026-05-01 12:38 49.53426 11.16347 2811 ft 125 kts 35°
2026-05-01 12:38 49.54165 11.16988 3049 ft 116 kts 36°
2026-05-01 12:38 49.54912 11.17637 3004 ft 126 kts 33°
2026-05-01 12:39 49.55653 11.18341 3045 ft 126 kts 37°
2026-05-01 12:39 49.56386 11.19045 2970 ft 121 kts 39°